createdAt,value
2018-03-31T00:01:38.894Z,54.23
2018-03-31T00:04:06.456Z,54.33
2018-03-31T00:06:34.032Z,53.97
2018-03-31T00:09:01.666Z,54.99
2018-03-31T00:11:29.237Z,55.67
2018-03-31T00:13:56.797Z,54.51
2018-03-31T00:16:24.368Z,54.19
2018-03-31T00:18:52.133Z,53.97
2018-03-31T00:21:19.887Z,54.86
2018-03-31T00:23:47.589Z,54.52
2018-03-31T00:26:15.555Z,56.67
2018-03-31T00:28:43.529Z,56.61
2018-03-31T00:31:11.083Z,57.09
2018-03-31T00:33:39.219Z,56.14
2018-03-31T00:36:06.780Z,55.14
2018-03-31T00:38:34.484Z,55.52
2018-03-31T00:41:02.454Z,56.63
2018-03-31T00:43:30.411Z,57.18
2018-03-31T00:45:58.548Z,56.49
2018-03-31T00:48:26.207Z,56.49
2018-03-31T00:50:53.767Z,55.36
2018-03-31T00:53:21.327Z,57.03
2018-03-31T00:55:48.884Z,56.64
2018-03-31T00:58:16.449Z,56.22
2018-03-31T01:00:44.140Z,57.08
2018-03-31T01:03:11.878Z,56.12
2018-03-31T01:05:39.446Z,56.51
2018-03-31T01:08:07.091Z,55.93
2018-03-31T01:10:34.651Z,55.09
2018-03-31T01:13:02.232Z,55.78
2018-03-31T01:15:29.783Z,55.67
2018-03-31T01:17:57.448Z,56.75
2018-03-31T01:20:25.006Z,57.22
2018-03-31T01:22:52.575Z,56.88
2018-03-31T01:25:20.133Z,56.47
2018-03-31T01:27:47.796Z,56.27
2018-03-31T01:30:15.381Z,55.64
2018-03-31T01:32:43.351Z,54.57
2018-03-31T01:35:11.311Z,55.96
2018-03-31T01:37:38.884Z,54.87
2018-03-31T01:40:06.651Z,55.81
2018-03-31T01:42:34.475Z,55.83
2018-03-31T01:45:02.132Z,56.28
2018-03-31T01:47:29.702Z,55.73
2018-03-31T01:49:57.375Z,55.26
2018-03-31T01:52:24.952Z,57.03
2018-03-31T01:54:52.516Z,56.96
2018-03-31T01:57:20.488Z,56.43
2018-03-31T01:59:48.412Z,56.20
2018-03-31T02:02:15.975Z,55.38
2018-03-31T02:04:43.544Z,55.11
2018-03-31T02:07:11.195Z,56.32
2018-03-31T02:09:38.765Z,55.71
2018-03-31T02:12:06.357Z,57.39
2018-03-31T02:14:34.405Z,58.30
2018-03-31T02:17:02.250Z,57.66
2018-03-31T02:19:29.817Z,57.23
2018-03-31T02:21:57.391Z,56.91
2018-03-31T02:24:24.974Z,56.19
2018-03-31T02:26:52.597Z,56.23
2018-03-31T02:29:20.152Z,57.23
2018-03-31T02:31:47.717Z,57.58
2018-03-31T02:34:15.305Z,56.81
2018-03-31T02:36:43.034Z,57.14
2018-03-31T02:39:10.698Z,56.09
2018-03-31T02:41:38.541Z,57.62
2018-03-31T02:44:06.124Z,57.41
2018-03-31T02:46:33.707Z,57.59
2018-03-31T02:49:01.357Z,57.40
2018-03-31T02:51:28.921Z,56.39
2018-03-31T02:53:56.484Z,55.51
2018-03-31T02:56:24.070Z,56.81
2018-03-31T02:58:52.035Z,58.00
2018-03-31T03:01:20.080Z,58.24
2018-03-31T03:03:47.651Z,57.77
2018-03-31T03:06:15.250Z,57.28
2018-03-31T03:08:42.853Z,58.56
2018-03-31T03:11:10.426Z,57.43
2018-03-31T03:13:38.168Z,56.38
2018-03-31T03:16:05.731Z,56.23
2018-03-31T03:18:33.286Z,58.51
2018-03-31T03:21:00.868Z,59.47
2018-03-31T03:23:28.533Z,58.63
2018-03-31T03:25:56.241Z,56.92
2018-03-31T03:28:24.197Z,58.38
2018-03-31T03:30:52.333Z,58.34
2018-03-31T03:33:19.906Z,59.59
2018-03-31T03:35:47.548Z,58.02
2018-03-31T03:38:15.112Z,58.03
2018-03-31T03:40:42.865Z,57.99
2018-03-31T03:43:10.423Z,55.93
2018-03-31T03:45:38.024Z,56.13
2018-03-31T03:48:05.970Z,58.36
2018-03-31T03:50:33.734Z,57.45
2018-03-31T03:53:01.486Z,57.89
2018-03-31T03:55:29.065Z,58.53
2018-03-31T03:57:56.820Z,56.97
2018-03-31T04:00:24.478Z,57.52
2018-03-31T04:02:52.027Z,56.99
2018-03-31T04:05:19.602Z,57.29
2018-03-31T04:07:47.185Z,56.27
2018-03-31T04:10:15.198Z,55.77
2018-03-31T04:12:42.760Z,56.22
2018-03-31T04:15:10.323Z,56.64
2018-03-31T04:17:37.884Z,57.38
2018-03-31T04:20:05.470Z,56.25
2018-03-31T04:22:33.130Z,56.63
2018-03-31T04:25:00.776Z,55.99
2018-03-31T04:27:28.355Z,55.58
2018-03-31T04:29:55.918Z,54.88
2018-03-31T04:32:23.493Z,54.22
2018-03-31T04:34:51.070Z,55.83
2018-03-31T04:37:19.026Z,55.52
2018-03-31T04:39:46.986Z,54.50
2018-03-31T04:42:14.572Z,55.93
2018-03-31T04:44:42.607Z,57.07
2018-03-31T04:47:10.220Z,56.54
2018-03-31T04:49:37.807Z,56.89
2018-03-31T04:52:05.380Z,56.18
2018-03-31T04:54:32.947Z,54.77
2018-03-31T04:57:00.591Z,54.55
2018-03-31T04:59:28.163Z,54.54
2018-03-31T05:01:55.742Z,54.91
2018-03-31T05:04:23.340Z,54.25
2018-03-31T05:06:50.912Z,54.50
2018-03-31T05:09:18.503Z,54.22
2018-03-31T05:11:46.063Z,55.19
2018-03-31T05:14:13.746Z,56.06
2018-03-31T05:16:41.478Z,55.52
2018-03-31T05:19:09.035Z,55.01
2018-03-31T05:21:36.590Z,53.89
2018-03-31T05:24:04.145Z,53.29
2018-03-31T05:26:31.705Z,54.15
2018-03-31T05:28:59.259Z,54.24
2018-03-31T05:31:26.866Z,54.07
2018-03-31T05:33:54.609Z,54.02
2018-03-31T05:36:22.183Z,54.62
2018-03-31T05:38:49.818Z,54.23
2018-03-31T05:41:17.375Z,53.67
2018-03-31T05:43:44.962Z,54.43
2018-03-31T05:46:12.544Z,54.42
2018-03-31T05:48:40.592Z,53.47
2018-03-31T05:51:08.148Z,53.77
2018-03-31T05:53:35.718Z,53.98
2018-03-31T05:56:03.355Z,54.22
2018-03-31T05:58:30.916Z,53.32
2018-03-31T06:00:58.465Z,54.43
2018-03-31T06:03:26.058Z,54.83
2018-03-31T06:05:53.727Z,55.13
2018-03-31T06:08:21.281Z,55.23
2018-03-31T06:10:49.012Z,55.86
2018-03-31T06:13:16.619Z,55.60
2018-03-31T06:15:44.692Z,55.69
2018-03-31T06:18:12.655Z,56.20
2018-03-31T06:20:40.630Z,55.48
2018-03-31T06:23:08.214Z,56.18
2018-03-31T06:25:35.789Z,55.33
2018-03-31T06:28:03.370Z,56.65
2018-03-31T06:30:30.994Z,56.16
2018-03-31T06:32:58.551Z,57.44
2018-03-31T06:35:26.127Z,56.60
2018-03-31T06:37:53.695Z,56.64
2018-03-31T06:40:21.280Z,57.08
2018-03-31T06:42:48.944Z,58.79
2018-03-31T06:45:16.502Z,60.93
2018-03-31T06:47:44.099Z,63.54
2018-03-31T06:50:12.132Z,61.91
2018-03-31T06:52:39.728Z,62.80
2018-03-31T06:55:07.698Z,63.97
2018-03-31T06:57:35.694Z,62.90
2018-03-31T07:00:03.298Z,63.69
2018-03-31T07:02:30.987Z,62.44
2018-03-31T07:04:58.943Z,62.53
2018-03-31T07:07:26.499Z,63.94
2018-03-31T07:09:54.052Z,63.58
2018-03-31T07:12:21.624Z,65.31
2018-03-31T07:14:49.199Z,64.50
2018-03-31T07:17:16.961Z,66.97
2018-03-31T07:19:44.916Z,67.63
2018-03-31T07:22:12.549Z,67.54
2018-03-31T07:24:40.088Z,67.86
2018-03-31T07:27:07.685Z,70.23
2018-03-31T07:29:35.253Z,69.87
2018-03-31T07:32:02.810Z,70.10
2018-03-31T07:34:30.375Z,70.82
2018-03-31T07:36:57.945Z,70.93
2018-03-31T07:39:25.509Z,71.35
2018-03-31T07:41:53.485Z,72.21
2018-03-31T07:44:21.511Z,72.88
2018-03-31T07:46:49.203Z,71.90
2018-03-31T07:49:16.763Z,72.30
2018-03-31T07:51:44.340Z,73.18
2018-03-31T07:54:12.290Z,72.08
2018-03-31T07:56:39.920Z,71.85
2018-03-31T07:59:07.500Z,72.61
2018-03-31T08:01:35.161Z,73.90
2018-03-31T08:04:02.721Z,72.79
2018-03-31T08:06:30.311Z,71.49
2018-03-31T08:08:58.285Z,70.84
2018-03-31T08:11:25.868Z,73.68
2018-03-31T08:16:52.346Z,70.52
2018-03-31T08:19:19.910Z,70.71
2018-03-31T08:21:47.493Z,71.04
2018-03-31T08:24:15.087Z,71.21
2018-03-31T08:26:42.699Z,71.52
2018-03-31T08:29:10.283Z,71.68
2018-03-31T08:31:38.438Z,73.01
2018-03-31T08:34:06.033Z,73.84
2018-03-31T08:36:33.983Z,72.96
2018-03-31T08:39:01.623Z,72.61
2018-03-31T08:41:29.202Z,71.79
2018-03-31T08:43:56.852Z,72.24
2018-03-31T08:46:24.456Z,72.73
2018-03-31T08:48:52.012Z,72.21
2018-03-31T08:51:19.980Z,71.42
2018-03-31T08:53:47.946Z,70.68
2018-03-31T08:56:15.988Z,71.65
2018-03-31T08:58:43.661Z,70.56
2018-03-31T09:01:11.240Z,70.24
2018-03-31T09:03:38.817Z,72.71
2018-03-31T09:06:06.442Z,72.44
2018-03-31T09:08:34.039Z,72.13
2018-03-31T09:11:01.648Z,70.99
2018-03-31T09:13:29.233Z,70.49
2018-03-31T09:15:57.282Z,70.88
2018-03-31T09:18:24.958Z,71.75
2018-03-31T09:20:52.525Z,70.80
2018-03-31T09:23:20.672Z,72.21
2018-03-31T09:25:48.234Z,71.47
2018-03-31T09:28:15.846Z,72.28
2018-03-31T09:30:43.415Z,71.20
2018-03-31T09:33:11.010Z,71.39
2018-03-31T09:35:38.570Z,71.60
2018-03-31T09:38:06.142Z,72.20
2018-03-31T09:40:33.881Z,72.89
2018-03-31T09:43:01.467Z,71.05
2018-03-31T09:45:29.034Z,71.89
2018-03-31T09:47:56.607Z,71.29
2018-03-31T09:50:24.572Z,71.81
2018-03-31T09:52:52.537Z,72.89
2018-03-31T09:55:20.595Z,72.82
2018-03-31T09:57:48.236Z,71.33
2018-03-31T10:00:15.817Z,71.41
2018-03-31T10:02:43.391Z,71.00
2018-03-31T10:05:11.380Z,72.85
2018-03-31T10:07:39.404Z,72.03
2018-03-31T10:10:06.988Z,73.26
2018-03-31T10:12:34.604Z,72.61
2018-03-31T10:15:02.155Z,72.51
2018-03-31T10:17:29.772Z,73.17
2018-03-31T10:19:57.731Z,73.84
2018-03-31T10:22:25.305Z,76.06
2018-03-31T10:24:53.303Z,75.00
2018-03-31T10:27:20.875Z,74.84
2018-03-31T10:29:48.440Z,71.80
2018-03-31T10:32:16.025Z,72.14
2018-03-31T10:34:43.583Z,71.50
2018-03-31T10:37:11.160Z,71.75
2018-03-31T10:39:38.727Z,71.61
2018-03-31T10:42:06.705Z,70.67
2018-03-31T10:44:34.667Z,71.07
2018-03-31T10:47:02.231Z,70.01
2018-03-31T10:49:30.220Z,69.03
2018-03-31T10:51:57.783Z,68.99
2018-03-31T10:54:25.345Z,68.57
2018-03-31T10:56:52.925Z,68.51
2018-03-31T10:59:20.481Z,67.51
2018-03-31T11:01:48.061Z,68.61
2018-03-31T11:04:15.623Z,67.91
2018-03-31T11:06:43.199Z,67.50
2018-03-31T11:09:10.859Z,67.33
2018-03-31T11:11:38.446Z,67.09
2018-03-31T11:14:06.591Z,66.33
2018-03-31T11:16:34.160Z,67.96
2018-03-31T11:19:01.734Z,67.65
2018-03-31T11:21:29.700Z,66.12
2018-03-31T11:23:57.272Z,66.56
2018-03-31T11:26:25.234Z,66.09
2018-03-31T11:28:53.194Z,66.86
2018-03-31T11:31:20.751Z,66.98
2018-03-31T11:33:48.332Z,67.51
2018-03-31T11:36:16.283Z,67.57
2018-03-31T11:38:44.301Z,66.39
2018-03-31T11:41:11.869Z,65.70
2018-03-31T11:43:39.455Z,65.70
2018-03-31T11:46:07.160Z,65.19
2018-03-31T11:48:34.756Z,65.19
2018-03-31T11:51:02.518Z,64.06
2018-03-31T11:53:30.195Z,65.93
2018-03-31T11:55:57.787Z,64.93
2018-03-31T11:58:25.361Z,64.52
2018-03-31T12:00:53.349Z,64.26
2018-03-31T12:03:20.946Z,63.97
2018-03-31T12:05:48.506Z,64.83
2018-03-31T12:08:16.081Z,63.54
2018-03-31T12:10:43.635Z,62.99
2018-03-31T12:13:11.304Z,62.50
2018-03-31T12:15:38.880Z,62.73
2018-03-31T12:18:06.913Z,62.02
2018-03-31T12:20:34.493Z,61.48
2018-03-31T12:23:02.298Z,62.25
2018-03-31T12:25:30.268Z,61.64
2018-03-31T12:27:57.872Z,61.29
2018-03-31T12:30:25.482Z,61.07
2018-03-31T12:32:53.461Z,61.15
2018-03-31T12:35:21.041Z,60.77
2018-03-31T12:37:48.636Z,60.22
2018-03-31T12:40:16.415Z,59.39
2018-03-31T12:42:44.028Z,59.82
2018-03-31T12:45:11.628Z,57.78
2018-03-31T12:47:39.377Z,58.79
2018-03-31T12:50:06.952Z,59.99
2018-03-31T12:52:34.528Z,57.76
2018-03-31T12:55:02.488Z,60.65
2018-03-31T12:57:30.101Z,60.70
2018-03-31T12:59:58.072Z,59.79
2018-03-31T13:02:25.700Z,59.16
2018-03-31T13:04:53.684Z,59.11
2018-03-31T13:07:21.270Z,59.40
2018-03-31T13:09:48.839Z,56.60
2018-03-31T13:12:16.415Z,58.09
2018-03-31T13:14:43.977Z,58.90
2018-03-31T13:17:11.555Z,57.26
2018-03-31T13:19:39.124Z,58.32
2018-03-31T13:22:06.716Z,58.15
2018-03-31T13:24:34.297Z,57.60
2018-03-31T13:27:01.881Z,58.19
2018-03-31T13:29:29.443Z,57.41
2018-03-31T13:31:57.011Z,57.26
2018-03-31T13:34:24.639Z,59.17
2018-03-31T13:36:52.216Z,60.39
2018-03-31T13:39:19.868Z,60.78
2018-03-31T13:41:47.505Z,60.65
2018-03-31T13:44:15.236Z,61.89
2018-03-31T13:46:43.271Z,61.22
2018-03-31T13:49:10.832Z,61.30
2018-03-31T13:51:38.497Z,61.28
2018-03-31T13:54:06.174Z,60.53
2018-03-31T13:56:33.744Z,60.32
2018-03-31T13:59:01.724Z,60.55
2018-03-31T14:01:29.691Z,61.27
2018-03-31T14:03:57.728Z,61.30
2018-03-31T14:06:25.308Z,61.38
2018-03-31T14:08:53.311Z,62.80
2018-03-31T14:11:20.886Z,61.95
2018-03-31T14:13:48.499Z,62.30
2018-03-31T14:16:16.065Z,62.61
2018-03-31T14:18:43.632Z,60.84
2018-03-31T14:21:11.594Z,61.75
2018-03-31T14:23:39.222Z,62.87
2018-03-31T14:26:06.815Z,61.42
2018-03-31T14:28:34.385Z,62.20
2018-03-31T14:31:02.023Z,61.77
2018-03-31T14:33:29.614Z,61.32
2018-03-31T14:35:57.662Z,61.08
2018-03-31T14:38:25.267Z,61.69
2018-03-31T14:40:52.841Z,61.53
2018-03-31T14:43:20.545Z,61.99
2018-03-31T14:45:48.113Z,60.58
2018-03-31T14:48:16.073Z,61.59
2018-03-31T14:50:43.635Z,61.54
2018-03-31T14:53:11.231Z,61.44
2018-03-31T14:55:38.811Z,62.47
2018-03-31T14:58:06.408Z,63.49
2018-03-31T15:00:33.994Z,62.16
2018-03-31T15:03:01.570Z,62.84
2018-03-31T15:05:29.262Z,62.51
2018-03-31T15:07:56.866Z,63.30
2018-03-31T15:10:24.870Z,63.38
2018-03-31T15:12:52.457Z,62.25
2018-03-31T15:15:21.693Z,62.51
2018-03-31T15:17:49.335Z,62.21
2018-03-31T15:20:16.926Z,62.50
2018-03-31T15:22:44.884Z,64.15
2018-03-31T15:25:12.463Z,63.18
2018-03-31T15:27:40.084Z,63.64
2018-03-31T15:30:07.681Z,64.68
2018-03-31T15:32:35.668Z,64.17
2018-03-31T15:35:03.245Z,64.08
2018-03-31T15:37:30.832Z,63.28
2018-03-31T15:39:58.472Z,63.11
2018-03-31T15:42:26.035Z,63.47
2018-03-31T15:44:53.630Z,63.83
2018-03-31T15:47:21.206Z,63.38
2018-03-31T15:49:49.173Z,63.22
2018-03-31T15:52:17.128Z,62.76
2018-03-31T15:54:44.698Z,63.50
2018-03-31T15:57:12.656Z,62.49
2018-03-31T15:59:40.246Z,63.49
2018-03-31T16:02:07.833Z,63.14
2018-03-31T16:04:35.408Z,62.53
2018-03-31T16:07:03.080Z,63.37
2018-03-31T16:09:30.654Z,63.30
2018-03-31T16:11:58.273Z,63.08
2018-03-31T16:14:25.837Z,62.71
2018-03-31T16:16:53.408Z,62.94
2018-03-31T16:19:20.971Z,62.59
2018-03-31T16:21:48.569Z,62.88
2018-03-31T16:24:16.290Z,63.09
2018-03-31T16:26:43.867Z,62.64
2018-03-31T16:29:11.527Z,63.21
2018-03-31T16:31:39.196Z,64.20
2018-03-31T16:34:06.784Z,63.85
2018-03-31T16:36:34.368Z,64.29
2018-03-31T16:39:01.968Z,64.43
2018-03-31T16:41:29.540Z,64.06
2018-03-31T16:43:57.124Z,63.90
2018-03-31T16:46:25.093Z,63.99
2018-03-31T16:48:53.067Z,64.04
2018-03-31T16:51:20.655Z,63.21
2018-03-31T16:53:48.232Z,63.49
2018-03-31T16:56:15.886Z,64.35
2018-03-31T16:58:43.852Z,64.00
2018-03-31T17:01:11.529Z,64.07
2018-03-31T17:03:39.132Z,63.96
2018-03-31T17:06:07.118Z,64.19
2018-03-31T17:08:35.101Z,64.46
2018-03-31T17:11:02.687Z,64.67
2018-03-31T17:13:30.241Z,63.56
2018-03-31T17:15:57.827Z,64.07
2018-03-31T17:18:25.384Z,63.92
2018-03-31T17:20:52.946Z,64.35
2018-03-31T17:23:20.525Z,64.47
2018-03-31T17:25:48.084Z,63.57
2018-03-31T17:28:15.731Z,64.63
2018-03-31T17:30:43.299Z,64.16
2018-03-31T17:33:11.087Z,64.40
2018-03-31T17:35:39.063Z,64.12
2018-03-31T17:38:07.064Z,64.25
2018-03-31T17:40:34.651Z,63.76
2018-03-31T17:43:02.240Z,63.30
2018-03-31T17:45:29.803Z,63.75
2018-03-31T17:47:57.796Z,62.56
2018-03-31T17:50:25.359Z,64.18
2018-03-31T17:52:52.957Z,64.16
2018-03-31T17:55:20.540Z,63.91
2018-03-31T17:57:48.220Z,63.86
2018-03-31T18:00:16.209Z,63.95
2018-03-31T18:02:43.796Z,64.43
2018-03-31T18:05:11.375Z,65.16
2018-03-31T18:07:38.978Z,64.61
2018-03-31T18:10:06.989Z,64.83
2018-03-31T18:12:34.675Z,64.73
2018-03-31T18:15:02.243Z,64.59
2018-03-31T18:17:29.832Z,64.90
2018-03-31T18:19:57.450Z,64.20
2018-03-31T18:22:25.018Z,63.81
2018-03-31T18:24:52.583Z,64.15
2018-03-31T18:27:20.194Z,64.25
2018-03-31T18:29:47.759Z,64.41
2018-03-31T18:32:15.339Z,64.24
2018-03-31T18:34:42.909Z,64.75
2018-03-31T18:37:11.251Z,65.43
2018-03-31T18:39:38.913Z,66.13
2018-03-31T18:42:06.545Z,65.02
2018-03-31T18:44:34.523Z,65.37
2018-03-31T18:47:02.567Z,65.32
2018-03-31T18:49:30.156Z,65.04
2018-03-31T18:51:58.200Z,65.50
2018-03-31T18:54:25.752Z,65.48
2018-03-31T18:56:53.360Z,65.06
2018-03-31T18:59:20.915Z,65.62
2018-03-31T19:01:48.541Z,65.80
2018-03-31T19:04:16.547Z,66.08
2018-03-31T19:06:44.520Z,65.85
2018-03-31T19:09:12.092Z,65.54
2018-03-31T19:11:39.692Z,65.77
2018-03-31T19:14:07.316Z,65.63
2018-03-31T19:16:40.370Z,65.86
2018-03-31T19:19:07.958Z,66.04
2018-03-31T19:21:35.554Z,66.16
2018-03-31T19:24:03.118Z,66.33
2018-03-31T19:26:30.763Z,66.85
2018-03-31T19:28:58.416Z,66.79
2018-03-31T19:31:26.015Z,67.03
2018-03-31T19:33:53.576Z,67.19
2018-03-31T19:36:21.953Z,67.86
2018-03-31T19:38:49.519Z,67.20
2018-03-31T19:41:17.553Z,67.18
2018-03-31T19:43:45.113Z,66.21
2018-03-31T19:46:12.731Z,66.42
2018-03-31T19:48:40.695Z,66.34
2018-03-31T19:51:08.416Z,66.03
2018-03-31T19:53:36.103Z,66.88
2018-03-31T19:56:03.677Z,68.46
2018-03-31T19:58:31.716Z,68.39
2018-03-31T20:00:59.301Z,67.26
2018-03-31T20:03:26.936Z,67.19
2018-03-31T20:05:54.592Z,66.37
2018-03-31T20:08:22.278Z,67.51
2018-03-31T20:10:50.609Z,67.64
2018-03-31T20:13:18.199Z,67.78
2018-03-31T20:15:45.772Z,66.84
2018-03-31T20:18:13.330Z,66.61
2018-03-31T20:20:40.903Z,67.48
2018-03-31T20:23:08.481Z,66.15
2018-03-31T20:25:36.452Z,67.40
2018-03-31T20:28:04.427Z,68.08
2018-03-31T20:30:32.134Z,67.25
2018-03-31T20:32:59.820Z,67.12
2018-03-31T20:35:27.557Z,66.63
2018-03-31T20:37:55.180Z,67.13
2018-03-31T20:40:22.766Z,67.02
2018-03-31T20:42:50.346Z,66.58
2018-03-31T20:45:17.946Z,66.35
2018-03-31T20:47:45.543Z,66.76
2018-03-31T20:50:13.133Z,67.11
2018-03-31T20:52:40.698Z,67.70
2018-03-31T20:55:08.428Z,68.00
2018-03-31T20:57:35.994Z,67.10
2018-03-31T21:00:03.592Z,67.09
2018-03-31T21:02:31.172Z,67.67
2018-03-31T21:04:59.144Z,67.86
2018-03-31T21:07:27.104Z,67.73
2018-03-31T21:09:55.083Z,68.12
2018-03-31T21:12:23.052Z,67.13
2018-03-31T21:14:51.022Z,67.24
2018-03-31T21:17:18.636Z,68.08
2018-03-31T21:19:46.202Z,67.21
2018-03-31T21:22:13.776Z,66.89
2018-03-31T21:24:41.390Z,67.06
2018-03-31T21:27:08.961Z,67.01
2018-03-31T21:29:36.559Z,66.66
2018-03-31T21:32:04.105Z,67.25
2018-03-31T21:34:31.674Z,67.51
2018-03-31T21:36:59.259Z,67.27
2018-03-31T21:39:26.903Z,67.68
2018-03-31T21:41:54.480Z,67.17
2018-03-31T21:44:22.610Z,68.13
2018-03-31T21:46:50.203Z,67.56
2018-03-31T21:49:18.172Z,67.18
2018-03-31T21:51:46.151Z,67.57
2018-03-31T21:54:14.888Z,67.26
2018-03-31T21:56:42.460Z,67.04
2018-03-31T21:59:10.050Z,67.29
2018-03-31T22:01:37.992Z,67.48
2018-03-31T22:04:05.565Z,68.69
2018-03-31T22:06:33.313Z,67.48
2018-03-31T22:09:00.888Z,67.49
2018-03-31T22:11:28.478Z,67.88
2018-03-31T22:14:01.599Z,68.34
2018-03-31T22:16:29.167Z,68.17
2018-03-31T22:18:56.747Z,67.67
2018-03-31T22:21:24.313Z,67.21
2018-03-31T22:23:51.924Z,68.14
2018-03-31T22:26:19.494Z,68.86
2018-03-31T22:28:47.072Z,69.68
2018-03-31T22:31:14.638Z,68.57
2018-03-31T22:33:42.262Z,68.83
2018-03-31T22:36:09.869Z,68.28
2018-03-31T22:38:37.444Z,68.57
2018-03-31T22:41:05.093Z,68.54
2018-03-31T22:43:32.671Z,67.84
2018-03-31T22:46:00.230Z,68.87
2018-03-31T22:48:27.866Z,68.31
2018-03-31T22:50:55.423Z,68.89
2018-03-31T22:53:23.080Z,68.36
2018-03-31T22:55:50.643Z,68.20
2018-03-31T22:58:18.210Z,68.09
2018-03-31T23:00:46.564Z,67.79
2018-03-31T23:03:14.140Z,68.32
2018-03-31T23:05:41.730Z,68.15
2018-03-31T23:08:09.315Z,68.66
2018-03-31T23:13:10.599Z,68.56
2018-03-31T23:15:38.175Z,68.90
2018-03-31T23:18:06.094Z,69.42
2018-03-31T23:20:34.056Z,69.50
2018-03-31T23:23:01.644Z,69.13
2018-03-31T23:25:29.239Z,69.97
2018-03-31T23:27:56.800Z,70.54
2018-03-31T23:30:24.349Z,69.71
2018-03-31T23:32:51.923Z,70.03
2018-03-31T23:35:19.517Z,69.84
2018-03-31T23:37:47.548Z,69.81
2018-03-31T23:40:15.152Z,69.80
2018-03-31T23:42:42.766Z,69.32
2018-03-31T23:45:10.326Z,69.03
2018-03-31T23:47:37.895Z,68.01
2018-03-31T23:50:05.470Z,69.80
2018-03-31T23:52:33.047Z,69.33
2018-03-31T23:55:01.037Z,68.72
2018-03-31T23:57:29.034Z,69.06
2018-03-31T23:59:56.608Z,68.90
